Tiempo atmosférico en la estación meteorológica de Medina Sidonia, Cádiz (90 m.)



Fecha
DESCASC
Temp. máxima en grados centígrados (hora)
DESCASC
Temp. mínima en grados centígrados (hora)
DESCASC
Temp. media en grados centígrados
DESCASC
Racha de viento máxima en m/sg (hora)
DESCASC
Velocidad máxima media en intervalos de 10 minutos(hora)
DESCASC
Precipitaciones diarias en mm
DESCASC
Precipitaciones de 00:00 a 06:00 en mm
DESCASC
Precipitaciones de 06:00 a 12:00 en mm
DESCASC
Precipitaciones de 12:00 a 18:00 en mm
DESCASC
Precipitaciones de 18:00 a 24:00 en mm
DESCASC
17-09-2020 30.2 (15:20) 21.6 (03:50) 25.9 11.94 (23:40) 6.67 (16:50) 0 0 0 0 0
16-09-2020 30.2 (15:00) 17.8 (07:40) 24 10 (13:20) 6.67 (15:10) 0 0 0 0 0
15-09-2020 30.6 (16:40) 19.3 (08:00) 24.9 7.78 (18:40) 5.83 (18:40) 0 0 0 0 0
14-09-2020 29.9 (16:30) 22.9 (00:00) 26.4 19.72 (01:50) 12.78 (02:10) 0 0 0 0 0
13-09-2020 30.4 (16:00) 24.4 (00:00) 27.4 22.22 (15:10) 16.11 (14:50) 0 0 0 0 0
12-09-2020 32.3 (15:20) 20.9 (00:00) 26.6 19.17 (13:50) 15 (13:50) 0 0 0 0 0
11-09-2020 31.3 (15:50) 19.4 (00:00) 25.3 15.56 (14:10) 11.39 (14:10) 0 0 0 0 0
10-09-2020 34.2 (15:50) 19.3 (00:00) 26.8 8.89 (11:50) 6.67 (18:30) 0 0 0 0 0
09-09-2020 30.2 (17:10) 21.2 (00:00) 25.7 16.94 (01:40) 11.94 (11:10) 0 0 0 0 0
08-09-2020 28.7 (14:40) 21.7 (00:00) 25.2 19.17 (12:00) 13.89 (12:00) 0 0 0 0 0
07-09-2020 35.8 (15:40) 20.3 (07:10) 28 11.39 (00:10) 8.61 (00:10) 0 0 0 0 0
06-09-2020 29.9 (16:50) 21.5 (00:00) 25.7 17.5 (16:40) 13.06 (11:40) 0 0 0 0 0
05-09-2020 30.2 (16:00) 22.2 (00:00) 26.2 18.06 (00:50) 12.78 (02:10) 0 0 0 0 0
04-09-2020 29 (16:00) 22.6 (00:00) 25.8 21.39 (10:10) 15.83 (12:30) 0 0 0 0 0
03-09-2020 30.5 (15:50) 22.2 (00:00) 26.4 19.72 (23:59) 14.72 (11:20) 0 0 0 0 0
02-09-2020 31.7 (15:50) 14.6 (00:00) 23.2 13.89 (18:50) 10 (18:50) 0 0 0 0 0
01-09-2020 31.1 (15:50) 19.2 (00:00) 25.2 10.83 (00:30) 8.06 (00:30) 0 0 0 0 0
31-08-2020 29.4 (15:50) 20.2 (00:00) 24.8 18.61 (13:30) 13.61 (14:40) 0 0 0 0 0
30-08-2020 31 (16:20) 14.3 (00:00) 22.7 13.89 (13:50) 10 (13:40) 0 0 0 0 0
29-08-2020 26.8 (16:40) 15.7 (00:00) 21.2 11.67 (16:30) 8.61 (19:20) 0 0 0 0 0
28-08-2020 28.8 (16:50) 17.9 (00:00) 23.3 11.67 (19:10) 9.17 (19:00) 0 0 0 0 0
27-08-2020 38.5 (15:10) 20.3 (00:00) 29.4 10.28 (16:40) 8.33 (16:30) 0 0 0 0 0
26-08-2020 38.7 (16:10) 19.6 (00:00) 29.2 8.89 (12:40) 6.39 (11:10) 0 0 0 0 0
25-08-2020 34.8 (16:50) 23.7 (00:00) 29.3 14.17 (11:00) 10.56 (09:50) 0 0 0 0 0
24-08-2020 33.1 (15:30) 20.5 (00:00) 26.8 15 (11:50) 10.83 (10:40) 0 0 0 0 0
23-08-2020 36 (14:30) 15.9 (00:00) 25.9 8.61 (18:50) 6.67 (18:50) 0 0 0 0 0
22-08-2020 37.3 (16:10) 17.4 (00:00) 27.3 13.33 (17:20) 9.17 (19:10) 0 0 0 0 0
21-08-2020 32.3 (14:10) 18.4 (00:00) 25.3 11.11 (15:10) 8.61 (20:20) 0 0 0 0 0
20-08-2020 35.5 (14:20) 15.7 (00:00) 25.6 12.78 (19:10) 9.44 (19:00) 0 0 0 0 0
19-08-2020 36.3 (15:50) 18.3 (00:00) 27.3 10.83 (13:30) 7.22 (21:00) 0 0 0 0 0

Gráficas

Temp. máximas Temp. mínimas Temp. medias Precipitaciones Rachas de viento máximas Velocidades máximas media en intervalos de 10 minutos

Datos horarios

Fecha y hora oficial Temperatura (ºC) Velocidad del viento (km/h) Dirección del viento Racha (km/h) Dirección de racha Precipitación (mm) Presión (hPa) Tendencia (hPa) Humedad (%)
2020-09-17 23:00:00 23.3 13 Sur 30 Sudeste 0 -- -- 65
2020-09-17 22:00:00 23.1 15 Sur 27 Sur 0 -- -- 68
2020-09-17 21:00:00 23.3 13 Sur 27 Sur 0 -- -- 69
2020-09-17 20:00:00 24.6 19 Sur 39 Sudoeste 0 -- -- 62
2020-09-17 19:00:00 27.4 17 Sur 41 Sur 0 -- -- 50
2020-09-17 18:00:00 28.5 16 Sudeste 28 Sur 0 -- -- 54
2020-09-17 17:00:00 28.4 24 Sudeste 35 Sudeste 0 -- -- 57
2020-09-17 16:00:00 30.2 14 Sur 30 Sur 0 -- -- 40
2020-09-17 15:00:00 29.9 13 Sur 28 Sur 0 -- -- 41
2020-09-17 14:00:00 28.9 15 Sur 33 Sur 0 -- -- 43
2020-09-17 13:00:00 29 14 Sur 36 Sudeste 0 -- -- 43
2020-09-17 12:00:00 28.8 17 Sur 39 Sudeste 0 -- -- 45
2020-09-17 11:00:00 27 18 Sudeste 32 Sudeste 0 -- -- 58
2020-09-17 10:00:00 24.5 11 Sudeste 19 Sudeste 0 -- -- 70
2020-09-17 09:00:00 22.9 11 Sudeste 18 Sudeste 0 -- -- 68
2020-09-17 08:00:00 22.8 6 Sudeste 14 Sudeste 0 -- -- 66
2020-09-17 07:00:00 22.3 8 Sudeste 12 Sudeste 0 -- -- 75
2020-09-17 06:00:00 22 5 Sudeste 12 Sudeste 0 -- -- 78
2020-09-17 05:00:00 21.9 8 Sudeste 13 Sudeste 0 -- -- 79
2020-09-17 04:00:00 21.6 3 Sudoeste 8 Sudeste 0 -- -- 77
2020-09-17 03:00:00 22 4 Sudeste 9 Este 0 -- -- 76
2020-09-17 02:00:00 22.1 4 Sudeste 19 Sudeste 0 -- -- 78
2020-09-17 01:00:00 22.5 11 Sudeste 19 Sudeste 0 -- -- 78
2020-09-17 00:00:00 22.8 2 Sudoeste 15 Este 0 -- -- 73
2020-09-16 23:00:00 23.4 14 Este 28 Este 0 -- -- 71
2020-09-16 22:00:00 24 17 Sudeste 31 Sudeste 0 -- -- 67
2020-09-16 21:00:00 23.8 19 Este 28 Este 0 -- -- 67
2020-09-16 20:00:00 23.8 11 Oeste 24 Oeste 0 -- -- 78
2020-09-16 19:00:00 25.5 16 Oeste 27 Este 0 -- -- 70
2020-09-16 18:00:00 29.1 14 Sudeste 25 Sudeste 0 -- -- 45
2020-09-16 17:00:00 29.3 13 Sudeste 28 Este 0 -- -- 49
2020-09-16 16:00:00 29.1 18 Este 33 Sudeste 0 -- -- 51
2020-09-16 15:00:00 30.2 22 Sudeste 33 Sudeste 0 -- -- 47
2020-09-16 14:00:00 28.7 20 Sudeste 36 Este 0 -- -- 52
2020-09-16 13:00:00 28.4 21 Este 34 Este 0 -- -- 55
2020-09-16 12:00:00 26.3 20 Sudeste 32 Sudeste 0 -- -- 63
2020-09-16 11:00:00 24.9 15 Sudeste 22 Sudeste 0 -- -- 72
2020-09-16 10:00:00 22.2 6 Sudeste 9 Este 0 -- -- 82
2020-09-16 09:00:00 19.3 0 Calma 7 Noroeste 0 -- -- 90
2020-09-16 08:00:00 18.1 5 Oeste 6 Oeste 0 -- -- 91
2020-09-16 07:00:00 17.9 3 Oeste 4 Oeste 0 -- -- 88
2020-09-16 06:00:00 18 2 Oeste 5 Oeste 0 -- -- 84
2020-09-16 05:00:00 18.3 0 Calma 4 Oeste 0 -- -- 83
2020-09-16 04:00:00 19.2 0 Calma 5 Noroeste 0 -- -- 84
2020-09-16 03:00:00 19.6 4 Oeste 6 Oeste 0 -- -- 83
2020-09-16 02:00:00 20.1 4 Oeste 8 Oeste 0 -- -- 81
2020-09-16 01:00:00 20.6 3 Oeste 5 Noroeste 0 -- -- 77
2020-09-16 00:00:00 21.7 3 Oeste 6 Oeste 0 -- -- 75
2020-09-15 23:00:00 22.5 0 Calma 9 Sudoeste 0 -- -- 72
2020-09-15 22:00:00 23.1 7 Oeste 13 Oeste 0 -- -- 71
2020-09-15 21:00:00 24.1 5 Noroeste 22 Oeste 0 -- -- 70
2020-09-15 20:00:00 25.9 14 Oeste 25 Oeste 0 -- -- 63
2020-09-15 19:00:00 28.2 18 Oeste 28 Oeste 0 -- -- 57
2020-09-15 18:00:00 29.9 13 Oeste 23 Oeste 0 -- -- 52
2020-09-15 17:00:00 29.4 14 Oeste 22 Oeste 0 -- -- 52
2020-09-15 16:00:00 30 14 Oeste 26 Sudoeste 0 -- -- 51
2020-09-15 15:00:00 29.5 4 Sudoeste 20 Sur 0 -- -- 50
2020-09-15 14:00:00 29.9 9 Sudeste 22 Este 0 -- -- 46
2020-09-15 13:00:00 28.6 10 Sudeste 20 Sudeste 0 -- -- 54
2020-09-15 12:00:00 26.8 11 Sudeste 18 Este 0 -- -- 60
2020-09-15 11:00:00 23.5 5 Nordeste 10 Nordeste 0 -- -- 72
2020-09-15 10:00:00 21.6 3 Este 4 Este 0 -- -- 79
2020-09-15 09:00:00 19.4 0 Calma 9 Noroeste 0 -- -- 86
2020-09-15 08:00:00 19.3 5 Noroeste 6 Noroeste 0 -- -- 87
2020-09-15 07:00:00 19.9 4 Oeste 6 Nordeste 0 -- -- 84
2020-09-15 06:00:00 20.9 3 Nordeste 10 Nordeste 0 -- -- 81
2020-09-15 05:00:00 21.6 3 Nordeste 12 Nordeste 0 -- -- 81
2020-09-15 04:00:00 21.7 0 Calma 6 Oeste 0 -- -- 82
2020-09-15 03:00:00 21.7 5 Oeste 8 Noroeste 0 -- -- 83
2020-09-15 02:00:00 22.4 2 Sudeste 14 Sudeste 0 -- -- 81
2020-09-15 01:00:00 22.6 6 Sudeste 17 Sudeste 0 -- -- 80
2020-09-15 00:00:00 22.9 2 Sudoeste 17 Este 0 -- -- 80
2020-09-14 23:00:00 23.2 13 Sudeste 27 Sudeste 0 -- -- 78
2020-09-14 22:00:00 23.8 14 Sudeste 27 Sudeste 0 -- -- 75
2020-09-14 21:00:00 24.7 20 Sudeste 31 Sudeste 0 -- -- 70
2020-09-14 20:00:00 26.3 20 Sudeste 38 Sudeste 0 -- -- 63
2020-09-14 19:00:00 27.4 28 Sudeste 44 Sudeste 0 -- -- 58
2020-09-14 18:00:00 28.6 36 Este 47 Este 0 -- -- 55
2020-09-14 17:00:00 29.7 35 Este 51 Este 0 -- -- 51
2020-09-14 16:00:00 29.7 36 Este 57 Este 0 -- -- 52
2020-09-14 15:00:00 29.7 41 Sudeste 57 Este 0 -- -- 52
2020-09-14 14:00:00 28.8 42 Sudeste 58 Sudeste 0 -- -- 55
2020-09-14 13:00:00 27.7 39 Sudeste 59 Este 0 -- -- 57
2020-09-14 12:00:00 26.9 39 Este 57 Sudeste 0 -- -- 59
2020-09-14 11:00:00 26 36 Sudeste 54 Este 0 -- -- 62
2020-09-14 10:00:00 25.2 33 Sudeste 51 Sudeste 0 -- -- 65
2020-09-14 09:00:00 24.3 32 Sudeste 49 Este 0 -- -- 68
2020-09-14 08:00:00 24.2 36 Sudeste 52 Este 0 -- -- 66
2020-09-14 07:00:00 24.1 28 Sudeste 47 Sudeste 0 -- -- 67
2020-09-14 06:00:00 24.2 25 Sudeste 41 Sudeste 0 -- -- 65
2020-09-14 05:00:00 24.2 23 Este 44 Sudeste 0 -- -- 64
2020-09-14 04:00:00 24.6 32 Sudeste 57 Este 0 -- -- 61
2020-09-14 03:00:00 24.9 30 Sudeste 64 Sudeste 0 -- -- 60
2020-09-14 02:00:00 24.9 44 Este 71 Sudeste 0 -- -- 60
2020-09-14 01:00:00 24.5 38 Este 60 Este 0 -- -- 62
2020-09-14 00:00:00 24.5 38 Sudeste 59 Sudeste 0 -- -- 63
2020-09-13 23:00:00 24.8 34 Este 57 Este 0 -- -- 59
2020-09-13 22:00:00 25.1 36 Sudeste 54 Este 0 -- -- 56
2020-09-13 21:00:00 25.5 33 Sudeste 52 Sudeste 0 -- -- 53
2020-09-13 20:00:00 27 31 Sudeste 55 Este 0 -- -- 47
2020-09-13 19:00:00 28.4 41 Este 64 Sudeste 0 -- -- 44
2020-09-13 18:00:00 29 44 Sudeste 76 Este 0 -- -- 43
2020-09-13 17:00:00 29.3 53 Sudeste 73 Sudeste 0 -- -- 41
2020-09-13 16:00:00 30.4 51 Este 80 Este 0 -- -- 40
2020-09-13 15:00:00 30.1 58 Este 76 Este 0 -- -- 42
2020-09-13 14:00:00 29.7 46 Sudeste 67 Sudeste 0 -- -- 44
2020-09-13 13:00:00 29.1 51 Este 73 Este 0 -- -- 47
2020-09-13 12:00:00 28.4 45 Este 62 Sudeste 0 -- -- 49
2020-09-13 11:00:00 27.1 39 Sudeste 54 Sudeste 0 -- -- 51
2020-09-13 10:00:00 25.7 27 Sudeste 50 Sudeste 0 -- -- 53
2020-09-13 09:00:00 25.4 33 Sudeste 52 Sudeste 0 -- -- 53
2020-09-13 08:00:00 25.1 32 Sudeste 54 Este 0 -- -- 54
2020-09-13 07:00:00 25.1 34 Sudeste 59 Sudeste 0 -- -- 54
2020-09-13 06:00:00 25 31 Sudeste 52 Sudeste 0 -- -- 56
2020-09-13 05:00:00 24.7 32 Sudeste 51 Este 0 -- -- 60
2020-09-13 04:00:00 24.7 38 Sudeste 67 Sudeste 0 -- -- 59
2020-09-13 03:00:00 24.8 46 Sudeste 69 Sudeste 0 -- -- 59
2020-09-13 02:00:00 24.7 49 Sudeste 66 Sudeste 0 -- -- 61
2020-09-13 01:00:00 24.9 40 Sudeste 59 Sudeste 0 -- -- 60
2020-09-13 00:00:00 25.1 39 Sudeste 62 Sudeste 0 -- -- 56
2020-09-12 23:00:00 25.4 30 Sudeste 53 Sudeste 0 -- -- 52
2020-09-12 22:00:00 25.9 33 Sudeste 48 Sudeste 0 -- -- 48
2020-09-12 21:00:00 26 25 Sudeste 48 Sudeste 0 -- -- 48
2020-09-12 20:00:00 27 28 Sudeste 46 Sudeste 0 -- -- 45
2020-09-12 19:00:00 28.3 37 Este 57 Sudeste 0 -- -- 40
2020-09-12 18:00:00 30.1 37 Este 62 Este 0 -- -- 36
2020-09-12 17:00:00 30.4 41 Este 63 Este 0 -- -- 34
2020-09-12 16:00:00 31.1 45 Este 66 Este 0 -- -- 32
2020-09-12 15:00:00 32 47 Este 65 Este 0 -- -- 33
2020-09-12 14:00:00 31.4 49 Este 69 Sudeste 0 -- -- 33
2020-09-12 13:00:00 30.9 48 Este 66 Este 0 -- -- 34
2020-09-12 12:00:00 29.9 36 Este 53 Sudeste 0 -- -- 36
2020-09-12 11:00:00 27.8 37 Sudeste 50 Sudeste 0 -- -- 43
2020-09-12 10:00:00 26.1 31 Este 45 Este 0 -- -- 48
2020-09-12 09:00:00 24.1 20 Este 31 Este 0 -- -- 53
2020-09-12 08:00:00 23.1 24 Sudeste 34 Sudeste 0 -- -- 54
2020-09-12 07:00:00 23 17 Sudeste 25 Sudeste 0 -- -- 47
2020-09-12 06:00:00 21.7 14 Sudeste 22 Este 0 -- -- 48
2020-09-12 05:00:00 21.1 5 Este 12 Este 0 -- -- 49
2020-09-12 04:00:00 22 5 Este 23 Este 0 -- -- 49
2020-09-12 03:00:00 22 13 Este 21 Este 0 -- -- 54
2020-09-12 02:00:00 21.6 6 Sudeste 11 Este 0 -- -- 62
2020-09-12 01:00:00 22.7 9 Sudeste 22 Este 0 -- -- 62
2020-09-12 00:00:00 22.6 17 Este 24 Sudeste 0 -- -- 68
2020-09-11 23:00:00 22.9 6 Sudeste 21 Este 0 -- -- 64
2020-09-11 22:00:00 23.8 19 Este 36 Sudeste 0 -- -- 60
2020-09-11 21:00:00 25.2 26 Sudeste 39 Este 0 -- -- 51
2020-09-11 20:00:00 27.1 26 Este 42 Este 0 -- -- 45
2020-09-11 19:00:00 28.8 32 Sudeste 47 Este 0 -- -- 40
2020-09-11 18:00:00 30.3 35 Este 52 Este 0 -- -- 34
2020-09-11 17:00:00 30.6 34 Este 50 Este 0 -- -- 34
2020-09-11 16:00:00 30.9 37 Sudeste 50 Este 0 -- -- 34
2020-09-11 15:00:00 31.1 32 Este 56 Este 0 -- -- 35
2020-09-11 14:00:00 30.2 39 Este 52 Sudeste 0 -- -- 35
2020-09-11 13:00:00 29.6 33 Este 48 Este 0 -- -- 38
2020-09-11 12:00:00 28.2 27 Sudeste 42 Este 0 -- -- 41
2020-09-11 11:00:00 26.3 29 Este 44 Este 0 -- -- 42
2020-09-11 10:00:00 23.8 26 Este 38 Este 0 -- -- 55
2020-09-11 09:00:00 21.4 19 Este 28 Este 0 -- -- 66
2020-09-11 08:00:00 19.9 5 Sudeste 16 Este 0 -- -- 65
2020-09-11 07:00:00 20 12 Este 18 Este 0 -- -- 62
2020-09-11 06:00:00 20 9 Este 14 Este 0 -- -- 65
2020-09-11 05:00:00 19.4 3 Sudoeste 6 Sudeste 0 -- -- 65
2020-09-11 04:00:00 20 2 Oeste 10 Este 0 -- -- 58
2020-09-11 03:00:00 19.8 3 Sudeste 9 Este 0 -- -- 58
2020-09-11 02:00:00 20.2 0 Calma 5 Sur 0 -- -- 55
2020-09-11 01:00:00 20.5 4 Oeste 5 Noroeste 0 -- -- 51
2020-09-11 00:00:00 21.6 2 Sur 6 Oeste 0 -- -- 48
2020-09-10 23:00:00 23.3 2 Sudeste 14 Este 0 -- -- 45
2020-09-10 22:00:00 24.7 0 Calma 12 Oeste 0 -- -- 50
2020-09-10 21:00:00 26.2 6 Oeste 17 Oeste 0 -- -- 49
2020-09-10 20:00:00 28.6 14 Oeste 23 Oeste 0 -- -- 44
2020-09-10 19:00:00 30.5 18 Oeste 30 Oeste 0 -- -- 38
2020-09-10 18:00:00 32.5 19 Oeste 28 Oeste 0 -- -- 36
2020-09-10 17:00:00 33.7 14 Sudeste 30 Sudoeste 0 -- -- 31
2020-09-10 16:00:00 34 12 Sudoeste 25 Oeste 0 -- -- 32
2020-09-10 15:00:00 33.6 10 Sudeste 24 Sudeste 0 -- -- 27
2020-09-10 14:00:00 32.2 10 Sudeste 23 Sudeste 0 -- -- 28
2020-09-10 13:00:00 30.8 20 Este 32 Este 0 -- -- 29
2020-09-10 12:00:00 28.9 21 Este 32 Este 0 -- -- 35
2020-09-10 11:00:00 26.6 17 Este 27 Sudeste 0 -- -- 40
2020-09-10 10:00:00 24.3 19 Sudeste 27 Sudeste 0 -- -- 46
2020-09-10 09:00:00 21.2 8 Sudeste 13 Sudeste 0 -- -- 56
2020-09-10 08:00:00 19.3 6 Sudeste 14 Sur 0 -- -- 62
2020-09-10 07:00:00 19.7 9 Sudeste 19 Sudeste 0 -- -- 64
2020-09-10 06:00:00 19.8 12 Sudeste 18 Sudeste 0 -- -- 69
2020-09-10 05:00:00 19.7 4 Sur 11 Sudeste 0 -- -- 78
2020-09-10 04:00:00 20.3 8 Sudeste 19 Sudeste 0 -- -- 76
2020-09-10 03:00:00 20.5 12 Sudeste 17 Sudeste 0 -- -- 74
2020-09-10 02:00:00 20.8 9 Sudeste 20 Este 0 -- -- 74
2020-09-10 01:00:00 21.1 16 Sudeste 24 Sudeste 0 -- -- 71
2020-09-10 00:00:00 21.7 13 Sudeste 21 Este 0 -- -- 70
2020-09-09 23:00:00 22.2 10 Sudeste 30 Sudeste 0 -- -- 67
2020-09-09 22:00:00 22.9 19 Sudeste 28 Sudeste 0 -- -- 61
2020-09-09 21:00:00 24.3 23 Sudeste 35 Este 0 -- -- 52
2020-09-09 20:00:00 26.4 23 Sudeste 37 Sudeste 0 -- -- 43
2020-09-09 19:00:00 28.2 29 Sudeste 38 Este 0 -- -- 39
2020-09-09 18:00:00 29.6 28 Sudeste 39 Este 0 -- -- 34
2020-09-09 17:00:00 30 28 Este 45 Sudeste 0 -- -- 33
2020-09-09 16:00:00 29.9 30 Sudeste 43 Sudeste 0 -- -- 35
2020-09-09 15:00:00 29.4 31 Este 43 Este 0 -- -- 39
2020-09-09 14:00:00 28.8 33 Sudeste 48 Este 0 -- -- 41
2020-09-09 13:00:00 28.2 36 Este 52 Este 0 -- -- 41
2020-09-09 12:00:00 27.2 40 Este 57 Este 0 -- -- 45
2020-09-09 11:00:00 25.9 38 Sudeste 57 Este 0 -- -- 47
2020-09-09 10:00:00 23.8 39 Este 54 Este 0 -- -- 61
2020-09-09 09:00:00 22.3 37 Este 54 Este 0 -- -- 68
2020-09-09 08:00:00 21.3 32 Este 50 Este 0 -- -- 74
2020-09-09 07:00:00 21.3 25 Sudeste 41 Sudeste 0 -- -- 73
2020-09-09 06:00:00 21.4 26 Sudeste 48 Este 0 -- -- 73
2020-09-09 05:00:00 21.8 35 Este 53 Este 0 -- -- 72
2020-09-09 04:00:00 21.9 39 Este 57 Este 0 -- -- 72
2020-09-09 03:00:00 22 36 Este 55 Este 0 -- -- 71
2020-09-09 02:00:00 22.2 36 Este 61 Sudeste 0 -- -- 70
2020-09-09 01:00:00 22.4 39 Este 57 Este 0 -- -- 67
2020-09-09 00:00:00 22.7 37 Este 54 Sudeste 0 -- -- 63
2020-09-08 23:00:00 22.7 35 Este 56 Este 0 -- -- 71
2020-09-08 22:00:00 22.8 40 Este 56 Este 0 -- -- 72
2020-09-08 21:00:00 23.4 36 Este 60 Sudeste 0 -- -- 66
2020-09-08 20:00:00 24.7 38 Este 60 Sudeste 0 -- -- 59
2020-09-08 19:00:00 25.7 45 Este 64 Este 0 -- -- 59
2020-09-08 18:00:00 26.2 49 Este 67 Sudeste 0 -- -- 60
2020-09-08 17:00:00 27.6 48 Este 67 Este 0 -- -- 56
2020-09-08 16:00:00 28.1 48 Este 67 Este 0 -- -- 55
2020-09-08 15:00:00 28.5 44 Este 64 Este 0 -- -- 54
2020-09-08 14:00:00 28.2 49 Este 65 Este 0 -- -- 54
2020-09-08 13:00:00 28 44 Este 64 Este 0 -- -- 55
2020-09-08 12:00:00 27.1 50 Este 69 Este 0 -- -- 58
2020-09-08 11:00:00 25.9 49 Este 64 Este 0 -- -- 63
2020-09-08 10:00:00 25 40 Este 65 Este 0 -- -- 67
2020-09-08 09:00:00 23.6 42 Este 65 Este 0 -- -- 74
2020-09-08 08:00:00 22.8 38 Este 60 Este 0 -- -- 75
2020-09-08 07:00:00 22.7 38 Este 59 Sudeste 0 -- -- 76
2020-09-08 06:00:00 22.6 35 Este 56 Este 0 -- -- 76
2020-09-08 05:00:00 22.7 35 Sudeste 60 Sudeste 0 -- -- 75
2020-09-08 04:00:00 22.8 38 Sudeste 54 Este 0 -- -- 73
2020-09-08 03:00:00 23 33 Sudeste 51 Este 0 -- -- 74
2020-09-08 02:00:00 23.3 34 Sudeste 44 Sudeste 0 -- -- 77
2020-09-08 01:00:00 22.7 17 Sudeste 27 Sudeste 0 -- -- 74
2020-09-08 00:00:00 21.7 0 Calma 7 Oeste 0 -- -- 68
2020-09-07 23:00:00 22.7 5 Oeste 11 Noroeste 0 -- -- 65
2020-09-07 22:00:00 24.7 7 Norte 17 Oeste 0 -- -- 58
2020-09-07 21:00:00 27.2 12 Oeste 24 Oeste 0 -- -- 46
2020-09-07 20:00:00 30.1 19 Oeste 31 Oeste 0 -- -- 39
2020-09-07 19:00:00 32 25 Oeste 32 Oeste 0 -- -- 36
2020-09-07 18:00:00 32.8 22 Oeste 35 Oeste 0 -- -- 36
2020-09-07 17:00:00 33.5 24 Oeste 35 Oeste 0 -- -- 38
2020-09-07 16:00:00 34.5 26 Oeste 32 Oeste 0 -- -- 37
2020-09-07 15:00:00 35.3 8 Norte 19 Nordeste 0 -- -- 30
2020-09-07 14:00:00 33.4 7 Nordeste 15 Norte 0 -- -- 33
2020-09-07 13:00:00 31.7 6 Nordeste 14 Este 0 -- -- 35
2020-09-07 12:00:00 29.4 5 Este 16 Este 0 -- -- 42
2020-09-07 11:00:00 27 9 Este 22 Este 0 -- -- 52
2020-09-07 10:00:00 24.6 14 Este 21 Este 0 -- -- 63
2020-09-07 09:00:00 21.6 3 Noroeste 15 Este 0 -- -- 76
2020-09-07 08:00:00 20.4 5 Este 13 Sudeste 0 -- -- 79
2020-09-07 07:00:00 20.5 0 Calma 20 Sudeste 0 -- -- 77
2020-09-07 06:00:00 21.1 4 Sudeste 24 Sudeste 0 -- -- 76
2020-09-07 05:00:00 21.5 17 Sudeste 26 Sudeste 0 -- -- 75
2020-09-07 04:00:00 21.7 21 Sudeste 34 Este 0 -- -- 75
2020-09-07 03:00:00 21.9 25 Sudeste 33 Sudeste 0 -- -- 73
2020-09-07 02:00:00 22.1 20 Este 36 Este 0 -- -- 69
2020-09-07 01:00:00 22.4 26 Sudeste 41 Sudeste 0 -- -- 69
2020-09-07 00:00:00 22.8 30 Sudeste 42 Sudeste 0 -- -- 68
2020-09-06 23:00:00 23.4 27 Sudeste 47 Este 0 -- -- 63
2020-09-06 22:00:00 23.9 36 Sudeste 50 Este 0 -- -- 58
2020-09-06 21:00:00 24.8 31 Sudeste 52 Este 0 -- -- 55
2020-09-06 20:00:00 26.5 39 Sudeste 56 Este 0 -- -- 47
2020-09-06 19:00:00 28.1 40 Sudeste 57 Este 0 -- -- 44
2020-09-06 18:00:00 29.2 42 Este 60 Este 0 -- -- 42
2020-09-06 17:00:00 29.6 47 Este 63 Este 0 -- -- 42
2020-09-06 16:00:00 29.6 41 Este 58 Este 0 -- -- 45
2020-09-06 15:00:00 29.1 45 Este 60 Este 0 -- -- 46
2020-09-06 14:00:00 28.7 45 Este 60 Este 0 -- -- 46
2020-09-06 13:00:00 27.9 44 Este 61 Este 0 -- -- 48
2020-09-06 12:00:00 27.1 43 Este 63 Este 0 -- -- 52
2020-09-06 11:00:00 25.8 41 Este 58 Este 0 -- -- 57
2020-09-06 10:00:00 24.3 32 Este 54 Este 0 -- -- 64
2020-09-06 09:00:00 22.6 28 Sudeste 45 Este 0 -- -- 71
2020-09-06 08:00:00 21.5 26 Sudeste 39 Este 0 -- -- 74
2020-09-06 07:00:00 21.7 26 Sudeste 40 Sudeste 0 -- -- 73
2020-09-06 06:00:00 22.1 26 Sudeste 45 Este 0 -- -- 68
2020-09-06 05:00:00 22.4 30 Sudeste 44 Este 0 -- -- 61
2020-09-06 04:00:00 23.1 34 Este 56 Este 0 -- -- 55
2020-09-06 03:00:00 22.9 39 Este 58 Este 0 -- -- 62
2020-09-06 02:00:00 23 42 Este 63 Este 0 -- -- 61
2020-09-06 01:00:00 23 36 Este 63 Este 0 -- -- 62
2020-09-06 00:00:00 22.7 34 Este 48 Este 0 -- -- 65
2020-09-05 23:00:00 22.6 30 Sudeste 51 Este 0 -- -- 66
2020-09-05 22:00:00 22.9 39 Este 53 Este 0 -- -- 66
2020-09-05 21:00:00 23.9 40 Este 62 Este 0 -- -- 60
2020-09-05 20:00:00 25.8 42 Sudeste 58 Este 0 -- -- 51
2020-09-05 19:00:00 27.6 42 Sudeste 58 Sudeste 0 -- -- 45
2020-09-05 18:00:00 28.7 43 Sudeste 57 Este 0 -- -- 42
2020-09-05 17:00:00 29.6 41 Este 58 Sudeste 0 -- -- 41
2020-09-05 16:00:00 30.2 39 Este 52 Este 0 -- -- 39
2020-09-05 15:00:00 29.8 38 Este 57 Este 0 -- -- 40
2020-09-05 14:00:00 29.1 40 Este 54 Este 0 -- -- 43
2020-09-05 13:00:00 28.2 41 Este 59 Este 0 -- -- 48
2020-09-05 12:00:00 27.1 41 Este 62 Este 0 -- -- 52
2020-09-05 11:00:00 25.8 41 Este 60 Sudeste 0 -- -- 57
2020-09-05 10:00:00 24.4 38 Este 51 Este 0 -- -- 65
2020-09-05 09:00:00 22.9 30 Este 44 Este 0 -- -- 69
2020-09-05 08:00:00 22.2 32 Este 46 Sudeste 0 -- -- 71
2020-09-05 07:00:00 22.2 31 Este 45 Este 0 -- -- 70
2020-09-05 06:00:00 22.4 35 Este 50 Este 0 -- -- 69
2020-09-05 05:00:00 22.6 38 Este 51 Este 0 -- -- 65
2020-09-05 04:00:00 22.4 33 Este 55 Este 0 -- -- 70
2020-09-05 03:00:00 22.5 41 Este 60 Este 0 -- -- 71
2020-09-05 02:00:00 22.7 41 Este 59 Este 0 -- -- 71
2020-09-05 01:00:00 22.9 42 Este 65 Este 0 -- -- 71
2020-09-05 00:00:00 22.9 43 Este 62 Este 0 -- -- 73
2020-09-04 23:00:00 23.1 38 Este 60 Este 0 -- -- 71
2020-09-04 22:00:00 23.3 40 Este 66 Sudeste 0 -- -- 71
2020-09-04 21:00:00 23.9 41 Este 62 Este 0 -- -- 69
2020-09-04 20:00:00 25.6 41 Este 66 Sudeste 0 -- -- 59
2020-09-04 19:00:00 27.1 47 Este 65 Este 0 -- -- 53
2020-09-04 18:00:00 27.8 52 Este 72 Este 0 -- -- 50
2020-09-04 17:00:00 28.5 54 Este 70 Sudeste 0 -- -- 48
2020-09-04 16:00:00 29 49 Este 73 Sudeste 0 -- -- 47
2020-09-04 15:00:00 28.6 52 Este 74 Sudeste 0 -- -- 48
2020-09-04 14:00:00 28.6 52 Este 68 Sudeste 0 -- -- 48
2020-09-04 13:00:00 28 53 Este 75 Sudeste 0 -- -- 50
2020-09-04 12:00:00 27 54 Este 73 Sudeste 0 -- -- 54
2020-09-04 11:00:00 25.9 53 Este 77 Sudeste 0 -- -- 59
2020-09-04 10:00:00 24.5 49 Este 76 Este 0 -- -- 64
2020-09-04 09:00:00 23.3 45 Este 68 Este 0 -- -- 69
2020-09-04 08:00:00 22.6 45 Este 74 Este 0 -- -- 71
2020-09-04 07:00:00 22.6 44 Este 66 Este 0 -- -- 70
2020-09-04 06:00:00 22.7 47 Este 73 Este 0 -- -- 70
2020-09-04 05:00:00 22.7 44 Este 72 Este 0 -- -- 70
2020-09-04 04:00:00 22.9 44 Este 68 Este 0 -- -- 70
2020-09-04 03:00:00 23 48 Este 74 Este 0 -- -- 70
2020-09-04 02:00:00 23 48 Sudeste 71 Este 0 -- -- 69
2020-09-04 01:00:00 23.5 46 Sudeste 64 Este 0 -- -- 64
2020-09-04 00:00:00 23.8 45 Este 71 Este 0 -- -- 59
2020-09-03 23:00:00 24.2 35 Sudeste 53 Este 0 -- -- 48
2020-09-03 22:00:00 24.2 32 Este 56 Sudeste 0 -- -- 50
2020-09-03 21:00:00 24.8 34 Este 56 Este 0 -- -- 51
2020-09-03 20:00:00 26.4 35 Sudeste 58 Este 0 -- -- 48
2020-09-03 19:00:00 28.3 40 Este 62 Este 0 -- -- 38
2020-09-03 18:00:00 29.4 42 Este 67 Este 0 -- -- 38
2020-09-03 17:00:00 29.8 49 Este 69 Este 0 -- -- 36
2020-09-03 16:00:00 30 51 Este 70 Este 0 -- -- 36
2020-09-03 15:00:00 29.5 46 Este 67 Este 0 -- -- 40
2020-09-03 14:00:00 29.1 48 Este 66 Este 0 -- -- 45
2020-09-03 13:00:00 28.8 43 Este 67 Este 0 -- -- 45
2020-09-03 12:00:00 27.4 52 Este 71 Este 0 -- -- 49
2020-09-03 11:00:00 26.3 52 Este 69 Este 0 -- -- 53
2020-09-03 10:00:00 25.1 34 Sudeste 53 Sudeste 0 -- -- 58
2020-09-03 09:00:00 23.5 25 Sudeste 39 Sudeste 0 -- -- 65
2020-09-03 08:00:00 22.2 20 Sudeste 32 Sudeste 0 -- -- 71
2020-09-03 07:00:00 22.3 18 Sudeste 37 Este 0 -- -- 71
2020-09-03 06:00:00 22.3 23 Este 44 Este 0 -- -- 72
2020-09-03 05:00:00 22.5 22 Este 39 Este 0 -- -- 63
2020-09-03 04:00:00 22.7 26 Este 39 Este 0 -- -- 63
2020-09-03 03:00:00 22.5 29 Este 39 Este 0 -- -- 66
2020-09-03 02:00:00 22.7 28 Este 38 Este 0 -- -- 63
2020-09-03 01:00:00 22.2 15 Sudeste 22 Este 0 -- -- 58
2020-09-03 00:00:00 22.4 13 Sudeste 24 Este 0 -- -- 54
2020-09-02 23:00:00 22.6 14 Sudeste 19 Sudeste 0 -- -- 54
2020-09-02 22:00:00 23.3 13 Sudeste 32 Sudeste 0 -- -- 51
2020-09-02 21:00:00 24.3 25 Sudeste 37 Sudeste 0 -- -- 50
2020-09-02 20:00:00 26.1 30 Sudeste 45 Sudeste 0 -- -- 46
2020-09-02 19:00:00 28 33 Este 50 Este 0 -- -- 39
2020-09-02 18:00:00 29.7 32 Este 46 Sudeste 0 -- -- 35
2020-09-02 17:00:00 30.8 25 Sudeste 44 Sudeste 0 -- -- 36
2020-09-02 16:00:00 31.7 22 Sudeste 37 Sudeste 0 -- -- 35
2020-09-02 15:00:00 31 18 Sudeste 32 Sudeste 0 -- -- 38
2020-09-02 14:00:00 29.9 17 Sudeste 28 Este 0 -- -- 44
2020-09-02 13:00:00 28.4 17 Sudeste 28 Sudeste 0 -- -- 45
2020-09-02 12:00:00 26.3 14 Sudeste 23 Sudeste 0 -- -- 54
2020-09-02 11:00:00 24.4 14 Sudeste 21 Sudeste 0 -- -- 60
2020-09-02 10:00:00 21.7 10 Sudeste 18 Sudeste 0 -- -- 71
2020-09-02 09:00:00 17 2 Sur 7 Nordeste 0 -- -- 90
2020-09-02 08:00:00 15.9 2 Oeste 4 Noroeste 0 -- -- 86
2020-09-02 07:00:00 14.7 2 Noroeste 6 Este 0 -- -- 88
2020-09-02 06:00:00 14.8 3 Este 6 Este 0 -- -- 84
2020-09-02 05:00:00 15.8 3 Este 5 Este 0 -- -- 83
2020-09-02 04:00:00 16.2 0 Calma 3 Noroeste 0 -- -- 86
2020-09-02 03:00:00 16.8 2 Noroeste 3 Oeste 0 -- -- 83
2020-09-02 02:00:00 17.6 0 Calma 5 Noroeste 0 -- -- 78
2020-09-02 01:00:00 18.5 3 Noroeste 6 Oeste 0 -- -- 80
2020-09-02 00:00:00 19.2 0 Calma 5 Oeste 0 -- -- 68
2020-09-01 23:00:00 20.2 4 Oeste 8 Sudoeste 0 -- -- 64
2020-09-01 22:00:00 22.5 3 Oeste 15 Oeste 0 -- -- 61
2020-09-01 21:00:00 23.7 17 Oeste 32 Oeste 0 -- -- 58
2020-09-01 20:00:00 25.6 25 Oeste 35 Oeste 0 -- -- 52
2020-09-01 19:00:00 26.4 26 Oeste 33 Oeste 0 -- -- 52
2020-09-01 18:00:00 28.5 23 Oeste 32 Oeste 0 -- -- 43
2020-09-01 17:00:00 30.4 17 Oeste 28 Oeste 0 -- -- 37
2020-09-01 16:00:00 30.8 12 Sudeste 27 Este 0 -- -- 30
2020-09-01 15:00:00 30.3 14 Sudeste 33 Este 0 -- -- 29
2020-09-01 14:00:00 29.3 21 Sudeste 33 Sudeste 0 -- -- 32
2020-09-01 13:00:00 28.5 24 Sudeste 35 Sudeste 0 -- -- 35
2020-09-01 12:00:00 27.5 22 Este 38 Sudeste 0 -- -- 35
2020-09-01 11:00:00 26.6 23 Este 32 Sudeste 0 -- -- 36
2020-09-01 10:00:00 24.5 12 Este 22 Este 0 -- -- 49
2020-09-01 09:00:00 20.2 0 Calma 9 Este 0 -- -- 71
2020-09-01 08:00:00 20 7 Este 19 Este 0 -- -- 71
2020-09-01 07:00:00 20.4 3 Sur 15 Sudeste 0 -- -- 67
2020-09-01 06:00:00 21.2 8 Sudeste 27 Sudeste 0 -- -- 57
2020-09-01 05:00:00 21.9 20 Sudeste 38 Este 0 -- -- 52
2020-09-01 04:00:00 22.1 21 Este 34 Este 0 -- -- 57
2020-09-01 03:00:00 21.6 9 Sudeste 26 Sudeste 0 -- -- 52
2020-09-01 02:00:00 22 17 Sudeste 30 Este 0 -- -- 56
2020-09-01 01:00:00 21.9 22 Este 39 Este 0 -- -- 62
2020-09-01 00:00:00 22.2 28 Este 42 Este 0 -- -- 64
2020-08-31 23:00:00 22.6 27 Este 38 Este 0 -- -- 60
2020-08-31 22:00:00 23 23 Sudeste 40 Este 0 -- -- 57
2020-08-31 21:00:00 24.4 28 Este 44 Este 0 -- -- 51
2020-08-31 20:00:00 26.4 35 Este 53 Este 0 -- -- 42
2020-08-31 19:00:00 27.7 40 Este 62 Este 0 -- -- 43
2020-08-31 18:00:00 28.6 45 Este 61 Sudeste 0 -- -- 39
2020-08-31 17:00:00 29.1 41 Este 65 Este 0 -- -- 40
2020-08-31 16:00:00 29.2 47 Este 62 Este 0 -- -- 39
2020-08-31 15:00:00 29.1 44 Este 63 Este 0 -- -- 42
2020-08-31 14:00:00 28.7 43 Este 67 Este 0 -- -- 43
2020-08-31 13:00:00 28.1 43 Este 65 Sudeste 0 -- -- 45
2020-08-31 12:00:00 27.2 42 Este 64 Este 0 -- -- 49
2020-08-31 11:00:00 26.1 44 Este 60 Este 0 -- -- 51
2020-08-31 10:00:00 24.7 40 Este 59 Este 0 -- -- 58
2020-08-31 09:00:00 23 33 Este 49 Este 0 -- -- 64
2020-08-31 08:00:00 21.7 28 Este 48 Este 0 -- -- 73
2020-08-31 07:00:00 21.5 12 Sudeste 27 Sudeste 0 -- -- 75
2020-08-31 06:00:00 21.2 12 Sudeste 27 Sudeste 0 -- -- 77
2020-08-31 05:00:00 20.8 15 Este 26 Este 0 -- -- 77
2020-08-31 04:00:00 20.2 5 Este 17 Sudeste 0 -- -- 76
2020-08-31 03:00:00 21 13 Sudeste 21 Sudeste 0 -- -- 75
2020-08-31 02:00:00 21.2 12 Sudeste 18 Sudeste 0 -- -- 74
2020-08-31 01:00:00 21.7 13 Sudeste 25 Sudeste 0 -- -- 73
2020-08-31 00:00:00 22.2 18 Sudeste 27 Sudeste 0 -- -- 71
2020-08-30 23:00:00 22.2 12 Sudeste 17 Este 0 -- -- 65
2020-08-30 22:00:00 23.7 10 Sudeste 31 Sudeste 0 -- -- 61
2020-08-30 21:00:00 25.1 20 Sudeste 31 Este 0 -- -- 53
2020-08-30 20:00:00 27.6 22 Este 33 Sudeste 0 -- -- 40
2020-08-30 19:00:00 29.3 21 Este 37 Este 0 -- -- 33
2020-08-30 18:00:00 30.4 20 Este 35 Este 0 -- -- 27
2020-08-30 17:00:00 30.8 21 Sudeste 39 Sudeste 0 -- -- 28
2020-08-30 16:00:00 30.6 25 Sudeste 44 Este 0 -- -- 30
2020-08-30 15:00:00 30.5 30 Este 46 Este 0 -- -- 29
2020-08-30 14:00:00 30.2 34 Este 50 Este 0 -- -- 28
2020-08-30 13:00:00 29.2 31 Este 47 Este 0 -- -- 28
2020-08-30 12:00:00 25.2 7 Nordeste 13 Este 0 -- -- 36
2020-08-30 11:00:00 22.9 4 Este 7 Noroeste 0 -- -- 41
2020-08-30 10:00:00 19.5 2 Noroeste 6 Oeste 0 -- -- 50
2020-08-30 09:00:00 16.3 0 Calma 6 Noroeste 0 -- -- 62
2020-08-30 08:00:00 15.5 5 Oeste 9 Oeste 0 -- -- 63
2020-08-30 07:00:00 15.8 9 Noroeste 29 Sudeste 0 -- -- 67
2020-08-30 06:00:00 14.8 3 Sudeste 7 Este 0 -- -- 78
2020-08-30 05:00:00 15 4 Noroeste 12 Oeste 0 -- -- 84
2020-08-30 04:00:00 15 3 Oeste 9 Noroeste 0 -- -- 83
2020-08-30 03:00:00 15.4 3 Noroeste 7 Noroeste 0 -- -- 83
2020-08-30 02:00:00 16.1 3 Oeste 8 Oeste 0 -- -- 81
2020-08-30 01:00:00 16.6 0 Calma 8 Noroeste 0 -- -- 76
2020-08-30 00:00:00 17.9 3 Nordeste 10 Este 0 -- -- 69
2020-08-29 23:00:00 19.5 3 Nordeste 12 Este 0 -- -- 67
2020-08-29 22:00:00 20.9 9 Este 37 Oeste 0 -- -- 60
2020-08-29 21:00:00 21.9 26 Oeste 37 Oeste 0 -- -- 56
2020-08-29 20:00:00 24.1 28 Oeste 41 Oeste 0 -- -- 43
2020-08-29 19:00:00 25.1 30 Oeste 39 Oeste 0 -- -- 42
2020-08-29 18:00:00 26.6 27 Oeste 41 Oeste 0 -- -- 34
2020-08-29 17:00:00 26.5 23 Oeste 42 Oeste 0 -- -- 33
2020-08-29 16:00:00 26.4 23 Oeste 40 Oeste 0 -- -- 33
2020-08-29 15:00:00 25.8 24 Oeste 39 Oeste 0 -- -- 34
2020-08-29 14:00:00 25.9 22 Noroeste 37 Oeste 0 -- -- 36
2020-08-29 13:00:00 25.1 13 Oeste 31 Noroeste 0 -- -- 36
2020-08-29 12:00:00 22.8 9 Noroeste 22 Oeste 0 -- -- 43
2020-08-29 11:00:00 20.8 12 Noroeste 25 Noroeste 0 -- -- 49
2020-08-29 10:00:00 18.5 15 Noroeste 26 Noroeste 0 -- -- 57
2020-08-29 09:00:00 16.6 13 Noroeste 26 Oeste 0 -- -- 64
2020-08-29 08:00:00 16.1 15 Noroeste 23 Noroeste 0 -- -- 66
2020-08-29 07:00:00 16.6 12 Noroeste 20 Oeste 0 -- -- 65
2020-08-29 06:00:00 17.6 14 Oeste 23 Oeste 0 -- -- 62
2020-08-29 05:00:00 18.8 21 Noroeste 34 Oeste 0 -- -- 59
2020-08-29 04:00:00 19.9 23 Noroeste 33 Oeste 0 -- -- 57
2020-08-29 03:00:00 19.1 6 Noroeste 12 Noroeste 0 -- -- 70
2020-08-29 02:00:00 19.3 3 Oeste 6 Nordeste 0 -- -- 81
2020-08-29 01:00:00 20.8 2 Sudoeste 6 Sudoeste 0 -- -- 79
2020-08-29 00:00:00 22 3 Este 10 Oeste 0 -- -- 78
2020-08-28 23:00:00 22.8 3 Norte 13 Oeste 0 -- -- 76
2020-08-28 22:00:00 23.7 3 Sudoeste 27 Oeste 0 -- -- 72
2020-08-28 21:00:00 24.6 22 Oeste 36 Oeste 0 -- -- 68
2020-08-28 20:00:00 25.6 28 Oeste 42 Oeste 0 -- -- 64
2020-08-28 19:00:00 27.3 33 Oeste 42 Oeste 0 -- -- 57
2020-08-28 18:00:00 27.7 31 Oeste 41 Oeste 0 -- -- 55
2020-08-28 17:00:00 28.4 25 Oeste 39 Oeste 0 -- -- 52
2020-08-28 16:00:00 28 23 Oeste 36 Oeste 0 -- -- 51
2020-08-28 15:00:00 27.6 22 Oeste 40 Oeste 0 -- -- 53
2020-08-28 14:00:00 25.9 21 Oeste 33 Oeste 0 -- -- 60
2020-08-28 13:00:00 25.3 19 Oeste 32 Oeste 0 -- -- 63
2020-08-28 12:00:00 24.6 19 Oeste 32 Oeste 0 -- -- 65
2020-08-28 11:00:00 23.3 15 Oeste 24 Oeste 0 -- -- 72
2020-08-28 10:00:00 22.3 13 Sudoeste 21 Oeste 0 -- -- 77
2020-08-28 09:00:00 20.2 5 Oeste 12 Oeste 0 -- -- 88
2020-08-28 08:00:00 17.9 0 Calma 4 Nordeste 0 -- -- 88
2020-08-28 07:00:00 18.3 0 Calma 4 Sudeste 0 -- -- 84
2020-08-28 06:00:00 18.7 0 Calma 4 Noroeste 0 -- -- 81
2020-08-28 05:00:00 19.3 0 Calma 4 Oeste 0 -- -- 81
2020-08-28 04:00:00 20 3 Nordeste 4 Nordeste 0 -- -- 77
2020-08-28 03:00:00 20.9 2 Este 4 Sudeste 0 -- -- 73
2020-08-28 02:00:00 22.2 3 Oeste 10 Noroeste 0 -- -- 70
2020-08-28 01:00:00 23 4 Oeste 6 Sudoeste 0 -- -- 68
2020-08-28 00:00:00 23.2 2 Oeste 5 Oeste 0 -- -- 66
2020-08-27 23:00:00 24.5 2 Oeste 12 Oeste 0 -- -- 62
2020-08-27 22:00:00 26.1 4 Oeste 15 Oeste 0 -- -- 58
2020-08-27 21:00:00 27.4 9 Oeste 22 Oeste 0 -- -- 54
2020-08-27 20:00:00 31.4 22 Oeste 30 Oeste 0 -- -- 40
2020-08-27 19:00:00 35.1 19 Oeste 32 Noroeste 0 -- -- 27
2020-08-27 18:00:00 35.9 23 Oeste 34 Oeste 0 -- -- 25
2020-08-27 17:00:00 35.3 24 Oeste 37 Sudoeste 0 -- -- 31
2020-08-27 16:00:00 36.6 27 Oeste 36 Oeste 0 -- -- 30
2020-08-27 15:00:00 38.3 17 Noroeste 24 Noroeste 0 -- -- 17
2020-08-27 14:00:00 38.1 5 Sudeste 22 Norte 0 -- -- 26
2020-08-27 13:00:00 36.5 6 Nordeste 23 Nordeste 0 -- -- 26
2020-08-27 12:00:00 33.7 6 Sudeste 13 Este 0 -- -- 33
2020-08-27 11:00:00 30.4 5 Este 8 Este 0 -- -- 43
2020-08-27 10:00:00 26.5 3 Sudeste 5 Sudeste 0 -- -- 54
2020-08-27 09:00:00 21.8 0 Calma 5 Noroeste 0 -- -- 73
2020-08-27 08:00:00 20.3 5 Oeste 7 Oeste 0 -- -- 75
2020-08-27 07:00:00 21.4 3 Oeste 8 Noroeste 0 -- -- 78
2020-08-27 06:00:00 21 4 Noroeste 5 Oeste 0 -- -- 76
2020-08-27 05:00:00 21.7 5 Noroeste 7 Noroeste 0 -- -- 74
2020-08-27 04:00:00 21.7 4 Oeste 6 Oeste 0 -- -- 69
2020-08-27 03:00:00 22.2 3 Oeste 7 Noroeste 0 -- -- 65
2020-08-27 02:00:00 23.3 0 Calma 8 Oeste 0 -- -- 59
2020-08-27 01:00:00 24.3 3 Oeste 8 Oeste 0 -- -- 57
2020-08-27 00:00:00 25.2 7 Noroeste 10 Oeste 0 -- -- 52
2020-08-26 23:00:00 26.4 4 Noroeste 6 Oeste 0 -- -- 48
2020-08-26 22:00:00 28.8 3 Oeste 10 Oeste 0 -- -- 46
2020-08-26 21:00:00 30.8 9 Noroeste 28 Oeste 0 -- -- 43
2020-08-26 20:00:00 32.9 23 Oeste 31 Oeste 0 -- -- 39
2020-08-26 19:00:00 34.8 19 Oeste 29 Noroeste 0 -- -- 40
2020-08-26 18:00:00 36.1 19 Oeste 27 Oeste 0 -- -- 39
2020-08-26 17:00:00 37 19 Noroeste 28 Oeste 0 -- -- 37
2020-08-26 16:00:00 38.4 6 Noroeste 18 Este 0 -- -- 25
2020-08-26 15:00:00 36.9 5 Nordeste 21 Este 0 -- -- 29
2020-08-26 14:00:00 35.4 8 Este 26 Este 0 -- -- 34
2020-08-26 13:00:00 33.7 19 Sudeste 32 Sudeste 0 -- -- 40
2020-08-26 12:00:00 31.3 19 Este 31 Este 0 -- -- 47
2020-08-26 11:00:00 29.3 23 Este 30 Este 0 -- -- 55
2020-08-26 10:00:00 26.7 13 Este 20 Este 0 -- -- 63
2020-08-26 09:00:00 23.1 7 Sudeste 10 Sudeste 0 -- -- 84
2020-08-26 08:00:00 19.9 3 Oeste 5 Sudoeste 0 -- -- 88
2020-08-26 07:00:00 20.3 3 Oeste 15 Este 0 -- -- 86
2020-08-26 06:00:00 20 3 Oeste 5 Oeste 0 -- -- 87
2020-08-26 05:00:00 21.4 0 Calma 7 Sudeste 0 -- -- 85
2020-08-26 04:00:00 22.4 5 Sudeste 11 Sudeste 0 -- -- 81
2020-08-26 03:00:00 23.1 4 Este 13 Sudeste 0 -- -- 78
2020-08-26 02:00:00 23.6 6 Sudeste 13 Sudeste 0 -- -- 77
2020-08-26 01:00:00 23.8 0 Calma 20 Este 0 -- -- 75
2020-08-26 00:00:00 24.8 15 Sudeste 24 Este 0 -- -- 72
2020-08-25 23:00:00 25.4 14 Este 23 Este 0 -- -- 66
2020-08-25 22:00:00 26.6 19 Sudeste 30 Sudeste 0 -- -- 60
2020-08-25 21:00:00 28.3 21 Sudeste 37 Este 0 -- -- 54
2020-08-25 20:00:00 31.3 28 Este 36 Este 0 -- -- 45
2020-08-25 19:00:00 33.1 29 Este 38 Este 0 -- -- 40
2020-08-25 18:00:00 34.2 28 Este 41 Este 0 -- -- 37
2020-08-25 17:00:00 34.8 27 Este 45 Sudeste 0 -- -- 36
2020-08-25 16:00:00 34.5 30 Este 44 Este 0 -- -- 37
2020-08-25 15:00:00 33.5 30 Este 44 Este 0 -- -- 41
2020-08-25 14:00:00 32.7 30 Este 44 Este 0 -- -- 44
2020-08-25 13:00:00 31.4 32 Este 44 Este 0 -- -- 48
2020-08-25 12:00:00 29.9 31 Este 47 Este 0 -- -- 54
2020-08-25 11:00:00 28.1 37 Este 51 Este 0 -- -- 60
2020-08-25 10:00:00 26.6 38 Este 51 Este 0 -- -- 67
2020-08-25 09:00:00 25.2 27 Este 40 Este 0 -- -- 75
2020-08-25 08:00:00 24 21 Este 34 Este 0 -- -- 79
2020-08-25 07:00:00 23.8 17 Este 30 Este 0 -- -- 80
2020-08-25 06:00:00 23.9 15 Este 28 Este 0 -- -- 80
2020-08-25 05:00:00 24.1 17 Este 33 Este 0 -- -- 78
2020-08-25 04:00:00 24.4 19 Este 41 Este 0 -- -- 77
2020-08-25 03:00:00 24.2 22 Este 45 Este 0 -- -- 79
2020-08-25 02:00:00 24.6 26 Este 36 Este 0 -- -- 78
2020-08-25 01:00:00 24.5 18 Este 31 Este 0 -- -- 78
2020-08-25 00:00:00 24.7 26 Este 40 Sudeste 0 -- -- 78
2020-08-24 23:00:00 24.9 21 Sudeste 35 Este 0 -- -- 75
2020-08-24 22:00:00 26 27 Sudeste 40 Sudeste 0 -- -- 69
2020-08-24 21:00:00 27.6 29 Sudeste 47 Este 0 -- -- 61
2020-08-24 20:00:00 29.5 37 Sudeste 48 Sudeste 0 -- -- 53
2020-08-24 19:00:00 31.2 35 Este 47 Sudeste 0 -- -- 48
2020-08-24 18:00:00 32.3 33 Sudeste 46 Este 0 -- -- 46
2020-08-24 17:00:00 32.7 32 Sudeste 46 Este 0 -- -- 44
2020-08-24 16:00:00 32.9 35 Este 46 Este 0 -- -- 44
2020-08-24 15:00:00 32.6 34 Este 47 Este 0 -- -- 45
2020-08-24 14:00:00 32.1 34 Este 50 Este 0 -- -- 47
2020-08-24 13:00:00 31 37 Este 53 Este 0 -- -- 51
2020-08-24 12:00:00 29.9 38 Sudeste 54 Este 0 -- -- 55
2020-08-24 11:00:00 28.8 34 Este 53 Este 0 -- -- 59
2020-08-24 10:00:00 26.9 33 Este 45 Este 0 -- -- 67
2020-08-24 09:00:00 25 28 Sudeste 39 Sudeste 0 -- -- 74
2020-08-24 08:00:00 23.7 26 Sudeste 42 Sudeste 0 -- -- 79
2020-08-24 07:00:00 23.5 21 Sudeste 32 Este 0 -- -- 80
2020-08-24 06:00:00 23.4 23 Sudeste 36 Sudeste 0 -- -- 81
2020-08-24 05:00:00 23.4 24 Sudeste 35 Este 0 -- -- 78
2020-08-24 04:00:00 22.8 4 Sudeste 9 Sur 0 -- -- 69
2020-08-24 03:00:00 22 4 Sur 6 Sudeste 0 -- -- 70
2020-08-24 02:00:00 20.5 0 Calma 4 Oeste 0 -- -- 59
2020-08-24 01:00:00 21.4 2 Este 5 Noroeste 0 -- -- 56
2020-08-24 00:00:00 22.4 3 Oeste 7 Oeste 0 -- -- 50
2020-08-23 23:00:00 23.9 5 Noroeste 9 Oeste 0 -- -- 48
2020-08-23 22:00:00 26.8 3 Este 15 Sudeste 0 -- -- 41
2020-08-23 21:00:00 30 9 Sudoeste 25 Oeste 0 -- -- 27
2020-08-23 20:00:00 32.7 18 Oeste 29 Oeste 0 -- -- 21
2020-08-23 19:00:00 33.7 22 Oeste 31 Noroeste 0 -- -- 24
2020-08-23 18:00:00 34.8 22 Oeste 30 Oeste 0 -- -- 30
2020-08-23 17:00:00 35 13 Sudoeste 27 Oeste 0 -- -- 32
2020-08-23 16:00:00 35.2 13 Sudoeste 31 Oeste 0 -- -- 32
2020-08-23 15:00:00 35.5 22 Oeste 30 Sudoeste 0 -- -- 33
2020-08-23 14:00:00 35.4 11 Este 19 Este 0 -- -- 25
2020-08-23 13:00:00 33.1 5 Este 14 Sudeste 0 -- -- 30
2020-08-23 12:00:00 30.4 6 Sudeste 12 Sudeste 0 -- -- 38
2020-08-23 11:00:00 26.7 4 Sudeste 9 Este 0 -- -- 47
2020-08-23 10:00:00 22.9 4 Este 10 Este 0 -- -- 67
2020-08-23 09:00:00 18.6 4 Norte 10 Este 0 -- -- 77
2020-08-23 08:00:00 15.9 5 Oeste 6 Oeste 0 -- -- 82
2020-08-23 07:00:00 16.8 0 Calma 5 Noroeste 0 -- -- 80
2020-08-23 06:00:00 16.9 0 Calma 5 Este 0 -- -- 75
2020-08-23 05:00:00 17.7 2 Este 5 Este 0 -- -- 71
2020-08-23 04:00:00 18.5 3 Este 6 Nordeste 0 -- -- 66
2020-08-23 03:00:00 19.3 5 Este 9 Este 0 -- -- 67
2020-08-23 02:00:00 19.8 3 Oeste 8 Oeste 0 -- -- 65
2020-08-23 01:00:00 20.3 0 Calma 9 Noroeste 0 -- -- 66
2020-08-23 00:00:00 21.3 3 Oeste 6 Noroeste 0 -- -- 65
2020-08-22 23:00:00 23.6 0 Calma 18 Noroeste 0 -- -- 59
2020-08-22 22:00:00 24.9 12 Oeste 41 Oeste 0 -- -- 54
2020-08-22 21:00:00 26.7 27 Oeste 40 Noroeste 0 -- -- 48
2020-08-22 20:00:00 30.7 27 Oeste 43 Noroeste 0 -- -- 42
2020-08-22 19:00:00 32.2 33 Oeste 42 Oeste 0 -- -- 40
2020-08-22 18:00:00 33.7 32 Oeste 48 Oeste 0 -- -- 38
2020-08-22 17:00:00 35.7 27 Oeste 37 Noroeste 0 -- -- 34
2020-08-22 16:00:00 37 15 Noroeste 25 Norte 0 -- -- 27
2020-08-22 15:00:00 35.9 16 Noroeste 31 Norte 0 -- -- 30
2020-08-22 14:00:00 34.8 14 Noroeste 36 Noroeste 0 -- -- 36
2020-08-22 13:00:00 33.4 13 Norte 27 Norte 0 -- -- 40
2020-08-22 12:00:00 31.5 11 Noroeste 20 Oeste 0 -- -- 47
2020-08-22 11:00:00 28 10 Noroeste 21 Oeste 0 -- -- 58
2020-08-22 10:00:00 23.1 3 Este 6 Sudeste 0 -- -- 78
2020-08-22 09:00:00 19.2 4 Este 5 Sudeste 0 -- -- 92
2020-08-22 08:00:00 17.8 3 Nordeste 5 Este 0 -- -- 90
2020-08-22 07:00:00 17.6 0 Calma 5 Oeste 0 -- -- 87
2020-08-22 06:00:00 18 0 Calma 5 Este 0 -- -- 86
2020-08-22 05:00:00 18.4 3 Oeste 5 Oeste 0 -- -- 90
2020-08-22 04:00:00 18.6 3 Oeste 6 Sudeste 0 -- -- 87
2020-08-22 03:00:00 19.6 3 Este 4 Este 0 -- -- 87
2020-08-22 02:00:00 20.1 3 Nordeste 8 Noroeste 0 -- -- 85
2020-08-22 01:00:00 20.4 3 Oeste 5 Oeste 0 -- -- 87
2020-08-22 00:00:00 21.2 3 Sur 11 Oeste 0 -- -- 86
2020-08-21 23:00:00 21.9 4 Norte 21 Oeste 0 -- -- 84
2020-08-21 22:00:00 22.6 16 Noroeste 35 Oeste 0 -- -- 82
2020-08-21 21:00:00 24.1 23 Oeste 40 Oeste 0 -- -- 73
2020-08-21 20:00:00 27.1 28 Oeste 36 Oeste 0 -- -- 59
2020-08-21 19:00:00 30.5 27 Noroeste 35 Oeste 0 -- -- 46
2020-08-21 18:00:00 31.3 25 Oeste 35 Noroeste 0 -- -- 41
2020-08-21 17:00:00 31.2 26 Oeste 39 Oeste 0 -- -- 46
2020-08-21 16:00:00 31.2 27 Oeste 40 Oeste 0 -- -- 48
2020-08-21 15:00:00 31.2 24 Oeste 33 Noroeste 0 -- -- 52
2020-08-21 14:00:00 32 6 Oeste 20 Oeste 0 -- -- 40
2020-08-21 13:00:00 30.5 8 Noroeste 21 Noroeste 0 -- -- 44
2020-08-21 12:00:00 28.1 8 Noroeste 15 Noroeste 0 -- -- 56
2020-08-21 11:00:00 25.5 4 Este 11 Este 0 -- -- 68
2020-08-21 10:00:00 23.3 4 Sudeste 8 Sudeste 0 -- -- 76
2020-08-21 09:00:00 21.3 4 Noroeste 10 Oeste 0 -- -- 85
2020-08-21 08:00:00 21.2 4 Sudoeste 10 Sudoeste 0 -- -- 85
2020-08-21 07:00:00 20.9 4 Sur 10 Sudoeste 0 -- -- 86
2020-08-21 06:00:00 20.9 4 Sudeste 8 Este 0 -- -- 85
2020-08-21 05:00:00 20.2 4 Este 7 Este 0 -- -- 82
2020-08-21 04:00:00 19 2 Nordeste 7 Nordeste 0 -- -- 87
2020-08-21 03:00:00 18.7 3 Este 9 Este 0 -- -- 87
2020-08-21 02:00:00 19.9 3 Noroeste 8 Oeste 0 -- -- 86
2020-08-21 01:00:00 19.9 0 Calma 14 Oeste 0 -- -- 82
2020-08-21 00:00:00 21.4 12 Oeste 16 Oeste 0 -- -- 79
2020-08-20 23:00:00 21.7 10 Oeste 14 Oeste 0 -- -- 70
2020-08-20 22:00:00 23.3 6 Noroeste 14 Noroeste 0 -- -- 61
2020-08-20 21:00:00 25.3 6 Noroeste 22 Oeste 0 -- -- 43
2020-08-20 20:00:00 27.5 18 Oeste 46 Oeste 0 -- -- 41
2020-08-20 19:00:00 29.1 34 Oeste 41 Oeste 0 -- -- 31
2020-08-20 18:00:00 31.1 31 Oeste 42 Oeste 0 -- -- 28
2020-08-20 17:00:00 33 28 Oeste 37 Oeste 0 -- -- 22
2020-08-20 16:00:00 34 27 Oeste 36 Oeste 0 -- -- 22
2020-08-20 15:00:00 34.8 17 Oeste 27 Oeste 0 -- -- 27
2020-08-20 14:00:00 35.3 8 Nordeste 15 Norte 0 -- -- 21
2020-08-20 13:00:00 33.2 5 Sudeste 13 Sudeste 0 -- -- 25
2020-08-20 12:00:00 30.3 4 Sudeste 9 Sudeste 0 -- -- 36
2020-08-20 11:00:00 26.4 3 Sudeste 10 Sudeste 0 -- -- 44
2020-08-20 10:00:00 22.1 8 Sudeste 12 Sudeste 0 -- -- 53
2020-08-20 09:00:00 17.7 0 Calma 6 Este 0 -- -- 62
2020-08-20 08:00:00 15.7 2 Oeste 3 Oeste 0 -- -- 73
2020-08-20 07:00:00 16.5 2 Este 5 Oeste 0 -- -- 62
2020-08-20 06:00:00 16.8 4 Oeste 5 Oeste 0 -- -- 65
2020-08-20 05:00:00 17.8 3 Este 5 Este 0 -- -- 59
2020-08-20 04:00:00 18.8 0 Calma 4 Nordeste 0 -- -- 57
2020-08-20 03:00:00 19.4 3 Noroeste 6 Noroeste 0 -- -- 54
2020-08-20 02:00:00 20.6 3 Noroeste 10 Noroeste 0 -- -- 50
2020-08-20 01:00:00 21.2 6 Noroeste 8 Noroeste 0 -- -- 49
2020-08-20 00:00:00 22.7 4 Noroeste 9 Nordeste 0 -- -- 46
2020-08-19 23:00:00 24.7 4 Nordeste 9 Nordeste 0 -- -- 41
2020-08-19 22:00:00 26 3 Este 30 Oeste 0 -- -- 47
2020-08-19 21:00:00 28 26 Oeste 34 Noroeste 0 -- -- 44
2020-08-19 20:00:00 31.1 23 Oeste 33 Oeste 0 -- -- 34
2020-08-19 19:00:00 32.4 23 Oeste 33 Oeste 0 -- -- 29
2020-08-19 18:00:00 33.4 24 Oeste 34 Noroeste 0 -- -- 30
2020-08-19 17:00:00 34 20 Oeste 33 Noroeste 0 -- -- 33
2020-08-19 16:00:00 35.7 9 Norte 24 Este 0 -- -- 33
2020-08-19 15:00:00 36 14 Sudeste 30 Sudeste 0 -- -- 18
2020-08-19 14:00:00 35.3 18 Sudeste 39 Sudeste 0 -- -- 18
2020-08-19 13:00:00 34.1 17 Sudeste 30 Este 0 -- -- 24
2020-08-19 12:00:00 31.9 12 Sudeste 24 Este 0 -- -- 27
2020-08-19 11:00:00 29.9 11 Sudeste 19 Este 0 -- -- 32
2020-08-19 10:00:00 26.5 4 Este 8 Este 0 -- -- 49
2020-08-19 09:00:00 21.6 0 Calma 4 Oeste 0 -- -- 67
2020-08-19 08:00:00 18.6 0 Calma 6 Noroeste 0 -- -- 74
2020-08-19 07:00:00 18.5 0 Calma 6 Oeste 0 -- -- 76
2020-08-19 06:00:00 19.3 0 Calma 6 Noroeste 0 -- -- 73
2020-08-19 05:00:00 19.6 5 Noroeste 6 Oeste 0 -- -- 74
2020-08-19 04:00:00 20 5 Noroeste 8 Noroeste 0 -- -- 70
2020-08-19 03:00:00 20.8 0 Calma 8 Noroeste 0 -- -- 67
2020-08-19 02:00:00 22 5 Noroeste 8 Noroeste 0 -- -- 67
2020-08-19 01:00:00 22.2 3 Oeste 6 Oeste 0 -- -- 66
2020-08-19 00:00:00 22.8 4 Oeste 9 Norte 0 -- -- 65